sensor_id;sensor_type;location;lat;lon;timestamp;temperature;humidity
15298;DHT22;7750;48.796;9.026;2023-06-22T06:30:23;25.40;74.00
15298;DHT22;7750;48.796;9.026;2023-06-22T06:35:24;25.60;73.90
15298;DHT22;7750;48.796;9.026;2023-06-22T06:40:25;25.90;73.60
15298;DHT22;7750;48.796;9.026;2023-06-22T06:45:28;26.20;73.00
15298;DHT22;7750;48.796;9.026;2023-06-22T06:50:33;26.40;72.20
15298;DHT22;7750;48.796;9.026;2023-06-22T06:55:34;26.70;72.10
15298;DHT22;7750;48.796;9.026;2023-06-22T07:00:34;27.00;71.50
15298;DHT22;7750;48.796;9.026;2023-06-22T07:05:36;27.30;71.20
15298;DHT22;7750;48.796;9.026;2023-06-22T07:10:36;27.60;71.00
15298;DHT22;7750;48.796;9.026;2023-06-22T07:15:45;28.00;70.20
15298;DHT22;7750;48.796;9.026;2023-06-22T07:20:48;28.30;69.70
15298;DHT22;7750;48.796;9.026;2023-06-22T07:25:49;28.60;69.50
15298;DHT22;7750;48.796;9.026;2023-06-22T07:30:49;29.00;68.70
15298;DHT22;7750;48.796;9.026;2023-06-22T07:36:44;29.30;67.90
15298;DHT22;7750;48.796;9.026;2023-06-22T07:41:22;29.60;66.00
15298;DHT22;7750;48.796;9.026;2023-06-22T07:46:26;29.90;65.90
15298;DHT22;7750;48.796;9.026;2023-06-22T07:51:27;30.20;64.60
15298;DHT22;7750;48.796;9.026;2023-06-22T07:56:28;30.40;63.80
15298;DHT22;7750;48.796;9.026;2023-06-22T08:01:28;30.60;62.70
15298;DHT22;7750;48.796;9.026;2023-06-22T08:06:45;30.80;61.40
15298;DHT22;7750;48.796;9.026;2023-06-22T08:11:45;30.90;58.50
15298;DHT22;7750;48.796;9.026;2023-06-22T08:16:46;30.90;58.70
15298;DHT22;7750;48.796;9.026;2023-06-22T08:21:47;31.00;58.90
15298;DHT22;7750;48.796;9.026;2023-06-22T08:26:51;31.10;58.10
15298;DHT22;7750;48.796;9.026;2023-06-22T08:31:52;30.90;58.00
15298;DHT22;7750;48.796;9.026;2023-06-22T08:36:53;30.70;58.50
15298;DHT22;7750;48.796;9.026;2023-06-22T08:41:53;30.50;59.00
15298;DHT22;7750;48.796;9.026;2023-06-22T08:46:54;30.40;58.70
15298;DHT22;7750;48.796;9.026;2023-06-22T08:51:55;30.20;58.80
15298;DHT22;7750;48.796;9.026;2023-06-22T08:56:57;30.20;58.70
15298;DHT22;7750;48.796;9.026;2023-06-22T09:01:57;30.10;58.30
15298;DHT22;7750;48.796;9.026;2023-06-22T09:06:58;30.10;58.40
15298;DHT22;7750;48.796;9.026;2023-06-22T09:11:59;30.10;58.50
15298;DHT22;7750;48.796;9.026;2023-06-22T09:17:18;30.10;58.70
15298;DHT22;7750;48.796;9.026;2023-06-22T09:27:47;30.50;58.70
15298;DHT22;7750;48.796;9.026;2023-06-22T09:44:16;31.00;57.40
15298;DHT22;7750;48.796;9.026;2023-06-22T09:54:27;31.40;58.20
15298;DHT22;7750;48.796;9.026;2023-06-22T09:59:28;32.20;55.30
15298;DHT22;7750;48.796;9.026;2023-06-22T10:53:01;33.90;54.60
15298;DHT22;7750;48.796;9.026;2023-06-22T10:58:02;34.10;54.00
15298;DHT22;7750;48.796;9.026;2023-06-22T11:03:02;34.20;53.80
15298;DHT22;7750;48.796;9.026;2023-06-22T11:08:03;34.40;53.30
15298;DHT22;7750;48.796;9.026;2023-06-22T11:13:04;34.50;53.30
15298;DHT22;7750;48.796;9.026;2023-06-22T11:18:06;34.60;53.00
15298;DHT22;7750;48.796;9.026;2023-06-22T11:23:07;34.60;51.60
15298;DHT22;7750;48.796;9.026;2023-06-22T11:28:08;34.50;52.40
15298;DHT22;7750;48.796;9.026;2023-06-22T11:33:09;34.40;51.70
15298;DHT22;7750;48.796;9.026;2023-06-22T11:38:12;34.30;51.60
15298;DHT22;7750;48.796;9.026;2023-06-22T11:43:15;34.10;51.00
15298;DHT22;7750;48.796;9.026;2023-06-22T11:48:16;34.00;52.00
15298;DHT22;7750;48.796;9.026;2023-06-22T11:53:17;34.00;52.00
15298;DHT22;7750;48.796;9.026;2023-06-22T11:58:18;33.90;52.10
15298;DHT22;7750;48.796;9.026;2023-06-22T12:03:19;33.90;52.20
15298;DHT22;7750;48.796;9.026;2023-06-22T12:08:22;33.90;52.00
15298;DHT22;7750;48.796;9.026;2023-06-22T12:13:40;33.80;51.60
15298;DHT22;7750;48.796;9.026;2023-06-22T12:18:47;33.70;52.10
15298;DHT22;7750;48.796;9.026;2023-06-22T12:23:48;33.60;52.30
15298;DHT22;7750;48.796;9.026;2023-06-22T12:28:48;33.70;52.40
15298;DHT22;7750;48.796;9.026;2023-06-22T12:33:49;33.80;52.70
15298;DHT22;7750;48.796;9.026;2023-06-22T12:38:50;33.80;52.80
15298;DHT22;7750;48.796;9.026;2023-06-22T12:43:52;33.80;52.70
15298;DHT22;7750;48.796;9.026;2023-06-22T12:48:52;33.90;52.10
15298;DHT22;7750;48.796;9.026;2023-06-22T12:53:53;33.90;52.50
15298;DHT22;7750;48.796;9.026;2023-06-22T12:58:54;33.90;52.00
15298;DHT22;7750;48.796;9.026;2023-06-22T13:03:54;33.80;52.50
15298;DHT22;7750;48.796;9.026;2023-06-22T13:08:55;33.80;52.60
15298;DHT22;7750;48.796;9.026;2023-06-22T13:13:56;33.70;52.70
15298;DHT22;7750;48.796;9.026;2023-06-22T13:18:56;33.70;53.10
15298;DHT22;7750;48.796;9.026;2023-06-22T13:23:57;33.60;52.70
15298;DHT22;7750;48.796;9.026;2023-06-22T13:28:58;33.50;53.00
15298;DHT22;7750;48.796;9.026;2023-06-22T13:33:59;33.50;53.20
15298;DHT22;7750;48.796;9.026;2023-06-22T13:39:04;33.50;53.20
15298;DHT22;7750;48.796;9.026;2023-06-22T13:44:07;33.50;53.40
15298;DHT22;7750;48.796;9.026;2023-06-22T13:49:12;33.40;53.80
15298;DHT22;7750;48.796;9.026;2023-06-22T13:54:15;33.50;52.80
15298;DHT22;7750;48.796;9.026;2023-06-22T13:59:21;33.40;52.70
15298;DHT22;7750;48.796;9.026;2023-06-22T14:05:17;33.40;52.50
15298;DHT22;7750;48.796;9.026;2023-06-22T14:10:38;33.40;52.20
15298;DHT22;7750;48.796;9.026;2023-06-22T14:16:06;33.30;52.20
15298;DHT22;7750;48.796;9.026;2023-06-22T14:21:07;33.40;52.10
15298;DHT22;7750;48.796;9.026;2023-06-22T14:26:08;33.90;51.00
15298;DHT22;7750;48.796;9.026;2023-06-22T14:31:17;33.80;51.30
15298;DHT22;7750;48.796;9.026;2023-06-22T14:36:18;33.90;51.10
15298;DHT22;7750;48.796;9.026;2023-06-22T14:41:21;34.00;50.50
15298;DHT22;7750;48.796;9.026;2023-06-22T14:46:22;34.10;46.80
15298;DHT22;7750;48.796;9.026;2023-06-22T14:51:23;34.10;45.40
15298;DHT22;7750;48.796;9.026;2023-06-22T14:56:26;34.20;43.30
15298;DHT22;7750;48.796;9.026;2023-06-22T15:01:27;34.20;43.20
15298;DHT22;7750;48.796;9.026;2023-06-22T15:06:29;34.40;43.30
15298;DHT22;7750;48.796;9.026;2023-06-22T15:11:30;34.60;42.60
15298;DHT22;7750;48.796;9.026;2023-06-22T15:16:31;34.80;41.40
15298;DHT22;7750;48.796;9.026;2023-06-22T15:21:31;34.90;41.60
15298;DHT22;7750;48.796;9.026;2023-06-22T15:26:32;34.90;41.50
15298;DHT22;7750;48.796;9.026;2023-06-22T15:31:35;34.90;41.50
15298;DHT22;7750;48.796;9.026;2023-06-22T15:36:36;34.90;41.00
15298;DHT22;7750;48.796;9.026;2023-06-22T15:41:40;34.90;41.00
15298;DHT22;7750;48.796;9.026;2023-06-22T15:46:42;34.80;40.40
15298;DHT22;7750;48.796;9.026;2023-06-22T15:51:43;34.60;40.70
15298;DHT22;7750;48.796;9.026;2023-06-22T15:56:44;34.30;41.10
15298;DHT22;7750;48.796;9.026;2023-06-22T16:01:45;34.10;41.10
15298;DHT22;7750;48.796;9.026;2023-06-22T16:06:51;34.40;40.60
15298;DHT22;7750;48.796;9.026;2023-06-22T16:12:37;33.90;41.50
15298;DHT22;7750;48.796;9.026;2023-06-22T16:17:48;33.80;42.20
15298;DHT22;7750;48.796;9.026;2023-06-22T16:22:55;33.70;42.40
15298;DHT22;7750;48.796;9.026;2023-06-22T16:28:18;33.60;42.80
15298;DHT22;7750;48.796;9.026;2023-06-22T16:39:13;33.40;42.40
15298;DHT22;7750;48.796;9.026;2023-06-22T16:44:17;33.20;42.90
15298;DHT22;7750;48.796;9.026;2023-06-22T17:04:59;32.80;42.70
15298;DHT22;7750;48.796;9.026;2023-06-22T17:21:57;32.20;43.50
15298;DHT22;7750;48.796;9.026;2023-06-22T17:27:29;32.00;43.60
15298;DHT22;7750;48.796;9.026;2023-06-22T17:32:36;31.80;44.00
15298;DHT22;7750;48.796;9.026;2023-06-22T17:37:54;31.60;44.60
15298;DHT22;7750;48.796;9.026;2023-06-22T19:36:22;27.20;53.60
15298;DHT22;7750;48.796;9.026;2023-06-22T19:41:09;27.10;53.90
15298;DHT22;7750;48.796;9.026;2023-06-22T19:46:10;27.00;54.40
15298;DHT22;7750;48.796;9.026;2023-06-22T19:51:15;27.00;54.50
15298;DHT22;7750;48.796;9.026;2023-06-22T19:56:19;26.90;55.10
15298;DHT22;7750;48.796;9.026;2023-06-22T20:01:39;26.80;55.70
15298;DHT22;7750;48.796;9.026;2023-06-22T20:35:45;26.10;59.10
15298;DHT22;7750;48.796;9.026;2023-06-22T21:09:19;25.60;62.00
15298;DHT22;7750;48.796;9.026;2023-06-22T21:46:14;24.60;61.20
15298;DHT22;7750;48.796;9.026;2023-06-22T22:23:22;24.20;62.70
15298;DHT22;7750;48.796;9.026;2023-06-22T22:28:23;24.10;63.50
15298;DHT22;7750;48.796;9.026;2023-06-22T22:33:32;24.00;63.30
15298;DHT22;7750;48.796;9.026;2023-06-22T22:39:02;24.00;63.90
15298;DHT22;7750;48.796;9.026;2023-06-22T22:44:29;24.00;64.20
15298;DHT22;7750;48.796;9.026;2023-06-22T22:49:55;24.00;64.30
